createdAt,value
2018-09-03T00:01:13.391Z,5.90
2018-09-03T00:03:17.402Z,6.03
2018-09-03T00:05:21.858Z,6.22
2018-09-03T00:07:27.318Z,5.60
2018-09-03T00:09:36.942Z,6.10
2018-09-03T00:11:41.154Z,6.40
2018-09-03T00:13:46.177Z,6.08
2018-09-03T00:15:50.417Z,6.58
2018-09-03T00:17:55.338Z,6.42
2018-09-03T00:19:59.863Z,6.67
2018-09-03T00:22:03.964Z,6.37
2018-09-03T00:24:08.514Z,6.72
2018-09-03T00:26:12.661Z,7.03
2018-09-03T00:28:16.811Z,6.30
2018-09-03T00:30:21.107Z,6.67
2018-09-03T00:32:31.335Z,6.67
2018-09-03T00:34:40.701Z,7.12
2018-09-03T00:36:50.814Z,6.97
2018-09-03T00:39:00.526Z,7.00
2018-09-03T00:41:10.067Z,7.40
2018-09-03T00:43:19.552Z,7.47
2018-09-03T00:45:30.440Z,8.15
2018-09-03T00:47:34.776Z,9.80
2018-09-03T00:49:38.886Z,11.17
2018-09-03T00:51:42.990Z,9.65
2018-09-03T00:53:47.711Z,10.03
2018-09-03T00:55:51.925Z,9.60
2018-09-03T00:57:56.933Z,9.38
2018-09-03T01:00:01.381Z,8.95
2018-09-03T01:02:06.806Z,9.13
2018-09-03T01:04:11.189Z,8.40
2018-09-03T01:06:15.397Z,8.23
2018-09-03T01:08:19.736Z,8.68
2018-09-03T01:10:23.974Z,8.38
2018-09-03T01:12:28.478Z,8.83
2018-09-03T01:14:33.066Z,9.28
2018-09-03T01:16:37.150Z,9.57
2018-09-03T01:18:43.231Z,10.63
2018-09-03T01:20:48.180Z,9.15
2018-09-03T01:22:53.245Z,9.68
2018-09-03T01:24:57.918Z,10.43
2018-09-03T01:27:02.436Z,9.65
2018-09-03T01:29:06.537Z,10.13
2018-09-03T01:31:10.823Z,11.00
2018-09-03T01:33:14.967Z,10.93
2018-09-03T01:35:19.337Z,10.78
2018-09-03T01:37:25.412Z,11.33
2018-09-03T01:39:29.840Z,11.03
2018-09-03T01:41:33.958Z,11.43
2018-09-03T01:43:38.298Z,11.80
2018-09-03T01:45:42.865Z,11.10
2018-09-03T01:47:47.377Z,11.47
2018-09-03T01:49:51.942Z,12.70
2018-09-03T01:51:56.427Z,12.50
2018-09-03T01:54:01.915Z,12.03
2018-09-03T01:56:06.965Z,12.30
2018-09-03T01:58:10.971Z,12.23
2018-09-03T02:00:15.017Z,12.27
2018-09-03T02:02:19.321Z,12.60
2018-09-03T02:04:23.976Z,13.83
2018-09-03T02:06:28.802Z,12.93
2018-09-03T02:08:33.489Z,13.17
2018-09-03T02:10:37.853Z,13.80
2018-09-03T02:12:42.114Z,15.15
2018-09-03T02:14:46.551Z,14.53
2018-09-03T02:16:50.963Z,14.03
2018-09-03T02:18:55.665Z,14.73
2018-09-03T02:21:00.518Z,15.30
2018-09-03T02:23:04.553Z,15.37
2018-09-03T02:25:08.745Z,15.53
2018-09-03T02:27:12.841Z,15.40
2018-09-03T02:29:17.278Z,15.47
2018-09-03T02:31:22.328Z,15.73
2018-09-03T02:33:26.898Z,16.10
2018-09-03T02:35:30.992Z,16.47
2018-09-03T02:37:35.093Z,15.70
2018-09-03T02:39:39.277Z,16.48
2018-09-03T02:41:43.445Z,16.53
2018-09-03T02:43:47.806Z,16.87
2018-09-03T02:45:52.754Z,17.27
2018-09-03T02:47:56.929Z,17.45
2018-09-03T02:50:01.187Z,17.67
2018-09-03T02:52:05.256Z,18.63
2018-09-03T02:54:09.304Z,17.37
2018-09-03T02:56:13.373Z,17.00
2018-09-03T02:58:17.397Z,17.37
2018-09-03T03:00:25.804Z,17.67
2018-09-03T03:02:30.393Z,18.23
2018-09-03T03:04:34.449Z,18.35
2018-09-03T03:06:38.742Z,18.17
2018-09-03T03:08:44.993Z,19.33
2018-09-03T03:10:51.058Z,19.17
2018-09-03T03:12:56.442Z,19.17
2018-09-03T03:15:00.875Z,18.00
2018-09-03T03:17:05.819Z,18.77
2018-09-03T03:19:10.010Z,19.33
2018-09-03T03:21:14.259Z,19.17
2018-09-03T03:23:18.308Z,19.10
2018-09-03T03:25:23.693Z,19.60
2018-09-03T03:27:27.863Z,20.10
2018-09-03T03:29:32.280Z,20.72
2018-09-03T03:31:36.489Z,19.77
2018-09-03T03:33:40.731Z,20.17
2018-09-03T03:35:44.764Z,19.40
2018-09-03T03:37:49.924Z,20.55
2018-09-03T03:39:55.658Z,20.20
2018-09-03T03:42:00.286Z,20.25
2018-09-03T03:44:04.600Z,20.37
2018-09-03T03:46:09.153Z,21.02
2018-09-03T03:48:13.237Z,20.43
2018-09-03T03:50:17.439Z,21.27
2018-09-03T03:52:22.624Z,21.15
2018-09-03T03:54:26.817Z,21.17
2018-09-03T03:56:31.374Z,21.70
2018-09-03T03:58:35.813Z,20.57
2018-09-03T04:00:40.318Z,21.17
2018-09-03T04:02:44.705Z,21.10
2018-09-03T04:04:49.559Z,21.63
2018-09-03T04:06:54.664Z,19.40
2018-09-03T04:08:59.528Z,21.37
2018-09-03T04:11:03.983Z,21.95
2018-09-03T04:13:08.285Z,21.80
2018-09-03T04:15:12.513Z,22.25
2018-09-03T04:17:16.710Z,22.55
2018-09-03T04:19:21.156Z,22.50
2018-09-03T04:21:25.769Z,21.75
2018-09-03T04:23:30.372Z,20.43
2018-09-03T04:25:34.625Z,23.10
2018-09-03T04:27:38.809Z,22.65
2018-09-03T04:29:42.837Z,22.17
2018-09-03T04:31:47.526Z,22.02
2018-09-03T04:33:54.245Z,23.15
2018-09-03T04:35:59.481Z,24.37
2018-09-03T04:38:03.804Z,23.38
2018-09-03T04:40:08.014Z,22.17
2018-09-03T04:42:12.268Z,24.10
2018-09-03T04:44:16.822Z,23.10
2018-09-03T04:46:21.231Z,25.05
2018-09-03T04:48:25.885Z,24.73
2018-09-03T04:50:30.254Z,23.83
2018-09-03T04:52:34.404Z,24.32
2018-09-03T04:54:38.639Z,24.32
2018-09-03T04:56:42.865Z,23.55
2018-09-03T04:58:47.242Z,24.55
2018-09-03T05:00:52.259Z,24.13
2018-09-03T05:02:56.644Z,22.57
2018-09-03T05:05:01.242Z,24.37
2018-09-03T05:07:05.758Z,24.80
2018-09-03T05:09:09.817Z,24.12
2018-09-03T05:11:14.005Z,24.30
2018-09-03T05:13:17.997Z,24.45
2018-09-03T05:15:21.900Z,24.40
2018-09-03T05:17:25.748Z,23.62
2018-09-03T05:19:29.750Z,24.12
2018-09-03T05:21:33.928Z,24.27
2018-09-03T05:23:37.975Z,23.70
2018-09-03T05:25:42.041Z,22.82
2018-09-03T05:27:45.956Z,23.87
2018-09-03T05:29:51.558Z,22.75
2018-09-03T05:31:55.452Z,22.13
2018-09-03T05:33:59.319Z,22.73
2018-09-03T05:36:05.109Z,21.60
2018-09-03T05:38:09.124Z,22.27
2018-09-03T05:40:13.053Z,20.88
2018-09-03T05:42:16.969Z,21.40
2018-09-03T05:44:20.985Z,22.05
2018-09-03T05:46:24.955Z,20.35
2018-09-03T05:48:29.097Z,21.12
2018-09-03T05:50:33.343Z,20.73
2018-09-03T05:52:37.573Z,20.92
2018-09-03T05:54:41.704Z,19.65
2018-09-03T05:56:45.603Z,19.95
2018-09-03T05:58:49.635Z,19.92
2018-09-03T06:00:53.835Z,20.47
2018-09-03T06:02:57.815Z,19.03
2018-09-03T06:05:02.014Z,18.80
2018-09-03T06:07:06.268Z,19.25
2018-09-03T06:09:12.055Z,19.45
2018-09-03T06:11:16.333Z,19.20
2018-09-03T06:13:20.301Z,18.30
2018-09-03T06:15:24.286Z,19.50
2018-09-03T06:17:28.176Z,19.35
2018-09-03T06:19:32.460Z,19.40
2018-09-03T06:21:36.555Z,18.55
2018-09-03T06:23:40.962Z,18.73
2018-09-03T06:25:44.925Z,17.65
2018-09-03T06:27:48.959Z,18.75
2018-09-03T06:29:52.969Z,18.80
2018-09-03T06:31:56.983Z,17.90
2018-09-03T06:34:01.041Z,17.87
2018-09-03T06:36:05.623Z,18.57
2018-09-03T06:38:09.932Z,18.30
2018-09-03T06:40:14.923Z,17.95
2018-09-03T06:42:18.892Z,17.98
2018-09-03T06:44:22.825Z,17.98
2018-09-03T06:46:26.945Z,17.67
2018-09-03T06:48:32.014Z,18.35
2018-09-03T06:50:36.108Z,17.30
2018-09-03T06:52:40.363Z,17.37
2018-09-03T06:54:45.192Z,17.00
2018-09-03T06:56:49.196Z,17.40
2018-09-03T06:58:53.222Z,16.50
2018-09-03T07:00:57.163Z,15.93
2018-09-03T07:03:01.147Z,16.40
2018-09-03T07:05:06.035Z,16.85
2018-09-03T07:07:10.467Z,16.90
2018-09-03T07:09:14.681Z,16.73
2018-09-03T07:11:19.008Z,17.60
2018-09-03T07:13:22.973Z,16.37
2018-09-03T07:15:26.873Z,17.55
2018-09-03T07:17:31.265Z,17.85
2018-09-03T07:19:35.729Z,18.60
2018-09-03T07:21:39.917Z,20.35
2018-09-03T07:23:44.068Z,22.48
2018-09-03T07:25:48.074Z,18.32
2018-09-03T07:27:52.291Z,19.23
2018-09-03T07:29:56.391Z,19.45
2018-09-03T07:32:00.275Z,18.55
2018-09-03T07:34:04.887Z,18.87
2018-09-03T07:36:09.139Z,17.55
2018-09-03T07:38:13.945Z,18.40
2018-09-03T07:40:17.997Z,17.82
2018-09-03T07:42:22.066Z,16.15
2018-09-03T07:44:25.896Z,17.02
2018-09-03T07:46:29.803Z,16.07
2018-09-03T07:48:33.905Z,17.30
2018-09-03T07:50:38.134Z,16.50
2018-09-03T07:52:42.198Z,17.45
2018-09-03T07:54:46.138Z,17.17
2018-09-03T07:56:52.842Z,17.32
2018-09-03T07:58:56.711Z,16.40
2018-09-03T08:01:01.809Z,18.02
2018-09-03T08:03:06.252Z,16.82
2018-09-03T08:05:10.338Z,16.67
2018-09-03T08:07:15.622Z,16.62
2018-09-03T08:09:19.563Z,17.52
2018-09-03T08:11:23.538Z,16.57
2018-09-03T08:13:32.751Z,16.07
2018-09-03T08:15:37.361Z,17.70
2018-09-03T08:17:41.922Z,17.17
2018-09-03T08:19:46.128Z,16.95
2018-09-03T08:21:50.304Z,17.02
2018-09-03T08:23:54.167Z,18.15
2018-09-03T08:25:59.100Z,16.15
2018-09-03T08:28:03.887Z,16.48
2018-09-03T08:30:08.568Z,17.77
2018-09-03T08:32:12.508Z,16.82
2018-09-03T08:34:16.391Z,17.07
2018-09-03T08:36:20.281Z,15.75
2018-09-03T08:38:24.241Z,15.08
2018-09-03T08:40:28.211Z,15.65
2018-09-03T08:42:32.579Z,15.03
2018-09-03T08:44:37.777Z,15.15
2018-09-03T08:46:41.865Z,14.58
2018-09-03T08:48:45.823Z,15.45
2018-09-03T08:50:49.767Z,14.50
2018-09-03T08:52:53.608Z,14.87
2018-09-03T08:54:57.493Z,14.68
2018-09-03T08:57:01.905Z,15.55
2018-09-03T08:59:06.828Z,15.53
2018-09-03T09:01:11.045Z,15.20
2018-09-03T09:03:20.349Z,15.38
2018-09-03T09:05:24.221Z,14.45
2018-09-03T09:07:28.173Z,16.17
2018-09-03T09:09:33.014Z,14.60
2018-09-03T09:11:38.208Z,14.23
2018-09-03T09:13:42.541Z,14.80
2018-09-03T09:15:46.755Z,13.48
2018-09-03T09:17:50.636Z,13.43
2018-09-03T09:19:54.745Z,12.82
2018-09-03T09:21:58.718Z,13.45
2018-09-03T09:24:04.176Z,13.88
2018-09-03T09:26:08.231Z,13.90
2018-09-03T09:28:12.518Z,12.95
2018-09-03T09:30:16.459Z,13.03
2018-09-03T09:32:20.460Z,13.95
2018-09-03T09:34:24.613Z,13.90
2018-09-03T09:36:29.424Z,13.65
2018-09-03T09:38:35.656Z,13.78
2018-09-03T09:40:39.776Z,13.78
2018-09-03T09:42:43.851Z,13.68
2018-09-03T09:44:47.757Z,13.68
2018-09-03T09:46:51.638Z,14.95
2018-09-03T09:48:55.522Z,14.53
2018-09-03T09:50:59.424Z,14.30
2018-09-03T09:53:04.629Z,13.75
2018-09-03T09:55:08.775Z,14.68
2018-09-03T09:57:12.828Z,13.48
2018-09-03T09:59:16.761Z,13.88
2018-09-03T10:01:36.835Z,12.45
2018-09-03T10:03:41.120Z,13.22
2018-09-03T10:05:45.450Z,13.48
2018-09-03T10:07:49.436Z,12.25
2018-09-03T10:09:53.447Z,12.55
2018-09-03T10:11:57.307Z,12.47
2018-09-03T10:14:01.371Z,12.78
2018-09-03T10:16:05.922Z,12.65
2018-09-03T10:18:10.119Z,13.40
2018-09-03T10:20:14.148Z,11.65
2018-09-03T10:22:18.163Z,11.15
2018-09-03T10:24:22.017Z,11.50
2018-09-03T10:26:25.924Z,11.78
2018-09-03T10:28:29.812Z,10.78
2018-09-03T10:30:34.576Z,11.20
2018-09-03T10:32:38.691Z,11.15
2018-09-03T10:34:42.785Z,11.75
2018-09-03T10:36:47.434Z,11.73
2018-09-03T10:38:53.713Z,11.30
2018-09-03T10:40:58.069Z,10.60
2018-09-03T10:43:02.737Z,10.58
2018-09-03T10:45:07.330Z,11.00
2018-09-03T10:47:11.445Z,10.80
2018-09-03T10:49:15.615Z,11.38
2018-09-03T10:51:19.772Z,10.88
2018-09-03T10:53:25.369Z,11.12
2018-09-03T10:55:30.090Z,10.85
2018-09-03T10:57:34.195Z,11.08
2018-09-03T10:59:38.408Z,11.18
2018-09-03T11:01:42.549Z,10.90
2018-09-03T11:03:47.006Z,11.03
2018-09-03T11:05:51.393Z,10.55
2018-09-03T11:07:55.810Z,11.57
2018-09-03T11:10:00.912Z,11.83
2018-09-03T11:12:06.243Z,10.70
2018-09-03T11:14:10.377Z,11.08
2018-09-03T11:16:14.676Z,10.95
2018-09-03T11:18:18.738Z,10.48
2018-09-03T11:20:26.384Z,10.85
2018-09-03T11:22:31.195Z,10.75
2018-09-03T11:24:35.410Z,10.72
2018-09-03T11:26:39.512Z,10.63
2018-09-03T11:28:43.652Z,10.32
2018-09-03T11:30:48.193Z,9.93
2018-09-03T11:32:57.090Z,10.38
2018-09-03T11:35:02.029Z,10.43
2018-09-03T11:37:06.190Z,9.83
2018-09-03T11:39:11.957Z,10.43
2018-09-03T11:41:16.153Z,10.28
2018-09-03T11:43:20.274Z,9.98
2018-09-03T11:45:24.829Z,10.13
2018-09-03T11:47:29.283Z,9.20
2018-09-03T11:49:33.481Z,9.93
2018-09-03T11:51:37.647Z,9.18
2018-09-03T11:53:41.749Z,9.50
2018-09-03T11:55:45.972Z,8.93
2018-09-03T11:57:50.609Z,9.40
2018-09-03T11:59:54.982Z,8.85
2018-09-03T12:02:00.631Z,8.43
2018-09-03T12:04:04.878Z,8.78
2018-09-03T12:06:09.061Z,8.80
2018-09-03T12:08:13.764Z,9.88
2018-09-03T12:10:18.857Z,8.70
2018-09-03T12:12:23.332Z,9.10
2018-09-03T12:14:31.808Z,9.25
2018-09-03T12:16:35.914Z,9.53
2018-09-03T12:18:41.673Z,8.53
2018-09-03T12:20:45.905Z,8.48
2018-09-03T12:22:51.113Z,8.68
2018-09-03T12:24:55.746Z,8.75
2018-09-03T12:27:00.459Z,8.75
2018-09-03T12:29:05.053Z,9.83
2018-09-03T12:31:09.703Z,9.50
2018-09-03T12:33:13.794Z,8.90
2018-09-03T12:35:18.027Z,9.25
2018-09-03T12:37:23.253Z,9.60
2018-09-03T12:39:27.552Z,9.68
2018-09-03T12:41:32.512Z,9.85
2018-09-03T12:43:36.605Z,9.43
2018-09-03T12:45:46.285Z,11.05
2018-09-03T12:47:51.259Z,11.65
2018-09-03T12:49:55.561Z,10.75
2018-09-03T12:52:00.404Z,10.60
2018-09-03T12:54:04.711Z,10.98
2018-09-03T12:56:09.168Z,12.37
2018-09-03T12:58:13.253Z,11.80
2018-09-03T13:00:21.217Z,11.22
2018-09-03T13:02:25.657Z,11.10
2018-09-03T13:04:30.095Z,11.90
2018-09-03T13:06:35.203Z,10.28
2018-09-03T13:08:39.610Z,10.32
2018-09-03T13:10:43.682Z,11.80
2018-09-03T13:12:48.077Z,10.68
2018-09-03T13:14:55.410Z,12.28
2018-09-03T13:16:59.995Z,10.82
2018-09-03T13:19:04.315Z,11.33
2018-09-03T13:21:08.438Z,11.68
2018-09-03T13:23:12.590Z,11.28
2018-09-03T13:25:17.122Z,11.08
2018-09-03T13:27:28.667Z,11.68
2018-09-03T13:29:33.006Z,10.70
2018-09-03T13:31:37.115Z,10.88
2018-09-03T13:33:41.173Z,11.15
2018-09-03T13:35:46.489Z,10.32
2018-09-03T13:37:50.737Z,10.23
2018-09-03T13:39:55.996Z,10.60
2018-09-03T13:42:00.429Z,9.78
2018-09-03T13:44:05.026Z,10.60
2018-09-03T13:46:09.588Z,10.13
2018-09-03T13:48:13.703Z,10.58
2018-09-03T13:50:17.752Z,10.43
2018-09-03T13:52:22.162Z,9.68
2018-09-03T13:54:27.066Z,11.38
2018-09-03T13:56:33.607Z,11.75
2018-09-03T13:58:37.737Z,11.45
2018-09-03T14:00:41.828Z,11.95
2018-09-03T14:02:46.209Z,11.68
2018-09-03T14:04:51.025Z,11.83
2018-09-03T14:06:55.690Z,12.30
2018-09-03T14:09:00.493Z,12.98
2018-09-03T14:11:04.611Z,11.45
2018-09-03T14:13:08.999Z,11.18
2018-09-03T14:15:13.253Z,11.90
2018-09-03T14:17:17.433Z,10.88
2018-09-03T14:19:22.384Z,11.97
2018-09-03T14:21:29.542Z,11.40
2018-09-03T14:23:33.761Z,10.15
2018-09-03T14:25:38.037Z,10.03
2018-09-03T14:27:42.986Z,9.70
2018-09-03T14:29:47.290Z,10.00
2018-09-03T14:31:52.020Z,9.73
2018-09-03T14:33:57.808Z,10.10
2018-09-03T14:36:02.687Z,10.18
2018-09-03T14:38:07.519Z,10.50
2018-09-03T14:40:12.630Z,8.40
2018-09-03T14:42:16.661Z,9.83
2018-09-03T14:44:21.047Z,9.88
2018-09-03T14:46:25.492Z,9.10
2018-09-03T14:48:30.671Z,8.80
2018-09-03T14:50:35.842Z,8.13
2018-09-03T14:52:39.926Z,8.73
2018-09-03T14:54:43.913Z,8.00
2018-09-03T14:56:49.467Z,8.08
2018-09-03T14:58:55.064Z,7.60
2018-09-03T15:00:59.776Z,8.43
2018-09-03T15:03:07.005Z,8.43
2018-09-03T15:05:11.869Z,8.00
2018-09-03T15:07:16.186Z,8.18
2018-09-03T15:09:21.521Z,8.03
2018-09-03T15:11:25.831Z,7.95
2018-09-03T15:13:30.298Z,7.72
2018-09-03T15:15:34.444Z,8.65
2018-09-03T15:17:38.594Z,7.83
2018-09-03T15:19:42.669Z,8.45
2018-09-03T15:21:47.016Z,7.78
2018-09-03T15:23:51.195Z,7.62
2018-09-03T15:25:57.091Z,8.05
2018-09-03T15:28:02.245Z,8.03
2018-09-03T15:30:07.393Z,8.25
2018-09-03T15:32:11.592Z,7.72
2018-09-03T15:34:15.797Z,7.03
2018-09-03T15:36:20.027Z,7.53
2018-09-03T15:38:24.939Z,7.55
2018-09-03T15:40:29.490Z,7.60
2018-09-03T15:42:33.602Z,9.88
2018-09-03T15:44:37.906Z,9.13
2018-09-03T15:46:41.957Z,7.97
2018-09-03T15:48:46.395Z,7.75
2018-09-03T15:50:51.464Z,7.67
2018-09-03T15:52:56.473Z,7.87
2018-09-03T15:55:00.924Z,7.05
2018-09-03T15:57:05.001Z,7.35
2018-09-03T15:59:09.134Z,7.80
2018-09-03T16:01:13.210Z,7.37
2018-09-03T16:03:17.242Z,7.33
2018-09-03T16:05:22.685Z,7.53
2018-09-03T16:07:26.829Z,7.10
2018-09-03T16:09:31.192Z,7.40
2018-09-03T16:11:35.369Z,6.95
2018-09-03T16:13:39.707Z,7.62
2018-09-03T16:15:44.418Z,7.30
2018-09-03T16:17:49.033Z,7.40
2018-09-03T16:19:54.454Z,7.42
2018-09-03T16:22:01.928Z,7.62
2018-09-03T16:24:07.568Z,7.60
2018-09-03T16:26:13.512Z,7.72
2018-09-03T16:28:17.704Z,9.35
2018-09-03T16:30:22.709Z,8.40
2018-09-03T16:32:27.327Z,7.22
2018-09-03T16:34:31.814Z,7.87
2018-09-03T16:36:35.906Z,8.08
2018-09-03T16:38:39.969Z,7.75
2018-09-03T16:40:43.998Z,8.15
2018-09-03T16:42:49.012Z,8.80
2018-09-03T16:44:53.943Z,7.33
2018-09-03T16:46:58.887Z,7.55
2018-09-03T16:49:03.102Z,8.13
2018-09-03T16:51:07.249Z,7.08
2018-09-03T16:53:11.688Z,7.20
2018-09-03T16:55:15.870Z,7.55
2018-09-03T16:57:20.672Z,7.35
2018-09-03T16:59:25.122Z,7.55
2018-09-03T17:01:29.609Z,8.45
2018-09-03T17:03:33.758Z,8.25
2018-09-03T17:05:38.148Z,7.83
2018-09-03T17:07:42.371Z,10.05
2018-09-03T17:09:46.413Z,8.18
2018-09-03T17:11:50.913Z,8.10
2018-09-03T17:13:55.830Z,7.97
2018-09-03T17:16:00.767Z,8.05
2018-09-03T17:18:04.843Z,7.90
2018-09-03T17:20:08.908Z,8.50
2018-09-03T17:22:14.798Z,8.85
2018-09-03T17:24:19.140Z,8.98
2018-09-03T17:26:24.231Z,9.38
2018-09-03T17:28:29.409Z,8.83
2018-09-03T17:30:33.826Z,8.90
2018-09-03T17:32:37.877Z,8.00
2018-09-03T17:34:42.066Z,8.58
2018-09-03T17:36:46.969Z,8.18
2018-09-03T17:38:52.991Z,8.38
2018-09-03T17:40:57.836Z,8.10
2018-09-03T17:43:02.886Z,13.72
2018-09-03T17:45:07.713Z,9.80
2018-09-03T17:47:11.819Z,8.95
2018-09-03T17:49:16.557Z,8.63
2018-09-03T17:51:20.850Z,8.53
2018-09-03T17:53:25.879Z,8.78
2018-09-03T17:55:31.045Z,8.30
2018-09-03T17:57:35.778Z,9.08
2018-09-03T17:59:40.007Z,8.00
2018-09-03T18:01:44.225Z,8.95
2018-09-03T18:03:49.256Z,9.30
2018-09-03T18:05:53.833Z,8.55
2018-09-03T18:07:58.325Z,8.68
2018-09-03T18:10:02.814Z,10.10
2018-09-03T18:12:06.842Z,9.55
2018-09-03T18:14:11.221Z,9.50
2018-09-03T18:16:15.374Z,9.75
2018-09-03T18:18:20.388Z,9.88
2018-09-03T18:20:26.010Z,10.25
2018-09-03T18:22:30.749Z,9.85
2018-09-03T18:24:34.989Z,11.08
2018-09-03T18:26:39.210Z,10.72
2018-09-03T18:28:43.309Z,10.58
2018-09-03T18:30:49.180Z,10.80
2018-09-03T18:33:05.549Z,10.10
2018-09-03T18:35:10.977Z,10.65
2018-09-03T18:37:15.890Z,10.25
2018-09-03T18:39:21.240Z,10.32
2018-09-03T18:41:27.075Z,9.93
2018-09-03T18:43:31.809Z,10.32
2018-09-03T18:45:36.061Z,10.63
2018-09-03T18:47:40.169Z,10.70
2018-09-03T18:49:44.377Z,10.90
2018-09-03T18:51:48.799Z,10.50
2018-09-03T18:53:53.245Z,10.95
2018-09-03T18:55:57.973Z,12.55
2018-09-03T18:58:03.408Z,11.80
2018-09-03T19:00:08.277Z,12.45
2018-09-03T19:02:12.866Z,13.05
2018-09-03T19:04:17.369Z,17.55
2018-09-03T19:06:22.376Z,14.18
2018-09-03T19:08:27.781Z,13.43
2018-09-03T19:10:33.268Z,18.80
2018-09-03T19:12:37.335Z,16.00
2018-09-03T19:14:41.400Z,13.90
2018-09-03T19:16:46.813Z,16.48
2018-09-03T19:18:52.014Z,17.23
2018-09-03T19:20:56.786Z,16.52
2018-09-03T19:23:01.747Z,16.70
2018-09-03T19:25:05.950Z,16.87
2018-09-03T19:27:11.006Z,18.25
2018-09-03T19:29:16.898Z,16.85
2018-09-03T19:31:21.736Z,17.00
2018-09-03T19:33:26.173Z,15.20
2018-09-03T19:35:30.531Z,16.32
2018-09-03T19:37:34.806Z,17.02
2018-09-03T19:39:39.218Z,16.82
2018-09-03T19:41:43.489Z,17.48
2018-09-03T19:43:53.791Z,17.82
2018-09-03T19:45:58.260Z,19.95
2018-09-03T19:48:12.837Z,18.87
2018-09-03T19:50:17.484Z,18.85
2018-09-03T19:52:23.254Z,19.52
2018-09-03T19:54:31.170Z,19.57
2018-09-03T19:56:35.757Z,20.43
2018-09-03T19:58:39.829Z,20.90
2018-09-03T20:00:44.276Z,20.92
2018-09-03T20:02:48.757Z,22.02
2018-09-03T20:04:54.183Z,22.37
2018-09-03T20:06:58.637Z,22.90
2018-09-03T20:09:04.658Z,22.90
2018-09-03T20:11:08.748Z,22.95
2018-09-03T20:13:12.993Z,22.60
2018-09-03T20:15:22.483Z,22.75
2018-09-03T20:17:26.770Z,23.05
2018-09-03T20:19:32.329Z,23.02
2018-09-03T20:21:36.702Z,23.95
2018-09-03T20:23:41.345Z,22.65
2018-09-03T20:25:45.293Z,24.05
2018-09-03T20:27:49.508Z,24.25
2018-09-03T20:29:56.770Z,23.62
2018-09-03T20:32:03.827Z,24.40
2018-09-03T20:34:08.389Z,25.23
2018-09-03T20:36:12.626Z,24.23
2018-09-03T20:38:16.663Z,25.23
2018-09-03T20:40:27.815Z,24.75
2018-09-03T20:42:32.216Z,24.50
2018-09-03T20:44:37.298Z,25.43
2018-09-03T20:46:41.461Z,25.37
2018-09-03T20:48:48.242Z,27.65
2018-09-03T20:50:54.063Z,25.52
2018-09-03T20:52:59.943Z,26.97
2018-09-03T20:55:06.893Z,26.70
2018-09-03T20:57:10.913Z,28.80
2018-09-03T20:59:15.408Z,29.65
2018-09-03T21:01:19.764Z,27.93
2018-09-03T21:03:25.275Z,29.27
2018-09-03T21:05:31.836Z,29.57
2018-09-03T21:07:35.860Z,32.08
2018-09-03T21:09:40.123Z,29.48
2018-09-03T21:11:44.507Z,29.60
2018-09-03T21:13:49.419Z,30.50
2018-09-03T21:15:54.279Z,31.33
2018-09-03T21:17:59.387Z,31.60
2018-09-03T21:20:04.008Z,32.75
2018-09-03T21:22:08.294Z,32.25
2018-09-03T21:24:12.365Z,33.40
2018-09-03T21:26:16.457Z,33.25
2018-09-03T21:28:21.344Z,33.88
2018-09-03T21:30:26.911Z,33.58
2018-09-03T21:32:31.318Z,33.75
2018-09-03T21:34:35.526Z,33.18
2018-09-03T21:36:39.646Z,35.55
2018-09-03T21:38:44.148Z,33.28
2018-09-03T21:40:48.913Z,35.30
2018-09-03T21:42:53.609Z,34.13
2018-09-03T21:44:58.433Z,35.70
2018-09-03T21:47:02.793Z,34.25
2018-09-03T21:49:07.449Z,36.33
2018-09-03T21:51:12.322Z,36.48
2018-09-03T21:53:16.703Z,35.13
2018-09-03T21:55:20.850Z,35.80
2018-09-03T21:57:25.335Z,36.58
2018-09-03T21:59:29.671Z,36.88
2018-09-03T22:01:34.178Z,37.70
2018-09-03T22:03:38.373Z,37.85
2018-09-03T22:05:42.534Z,38.63
2018-09-03T22:07:46.951Z,37.30
2018-09-03T22:09:52.774Z,37.95
2018-09-03T22:11:57.736Z,35.63
2018-09-03T22:14:02.506Z,35.08
2018-09-03T22:16:08.680Z,35.98
2018-09-03T22:18:12.810Z,35.28
2018-09-03T22:20:17.067Z,35.35
2018-09-03T22:22:21.710Z,35.50
2018-09-03T22:24:26.689Z,35.45
2018-09-03T22:26:31.408Z,34.08
2018-09-03T22:28:36.074Z,34.27
2018-09-03T22:30:40.137Z,34.60
2018-09-03T22:32:44.445Z,34.92
2018-09-03T22:34:49.131Z,35.78
2018-09-03T22:36:54.012Z,36.42
2018-09-03T22:38:58.683Z,37.50
2018-09-03T22:41:03.389Z,35.63
2018-09-03T22:43:07.938Z,36.93
2018-09-03T22:45:12.077Z,36.35
2018-09-03T22:47:16.259Z,36.03
2018-09-03T22:49:20.882Z,37.48
2018-09-03T22:51:25.186Z,36.65
2018-09-03T22:53:29.566Z,38.30
2018-09-03T22:55:33.769Z,37.53
2018-09-03T22:57:37.884Z,37.20
2018-09-03T22:59:42.016Z,35.90
2018-09-03T23:01:46.545Z,37.20
2018-09-03T23:03:51.516Z,38.60
2018-09-03T23:05:55.954Z,36.38
2018-09-03T23:08:00.320Z,36.98
2018-09-03T23:10:04.532Z,35.90
2018-09-03T23:12:08.549Z,37.28
2018-09-03T23:14:13.061Z,37.20
2018-09-03T23:16:17.195Z,37.63
2018-09-03T23:18:22.886Z,39.13
2018-09-03T23:20:27.126Z,38.78
2018-09-03T23:22:31.413Z,38.20
2018-09-03T23:24:35.549Z,38.88
2018-09-03T23:26:39.657Z,37.40
2018-09-03T23:28:43.874Z,38.55
2018-09-03T23:30:48.444Z,39.90
2018-09-03T23:32:53.114Z,38.85
2018-09-03T23:34:57.315Z,40.08
2018-09-03T23:37:01.581Z,40.50
2018-09-03T23:39:06.611Z,40.08
2018-09-03T23:41:10.755Z,40.10
2018-09-03T23:43:14.966Z,39.05
2018-09-03T23:45:20.583Z,39.50
2018-09-03T23:47:26.028Z,39.03
2018-09-03T23:49:30.286Z,38.88
2018-09-03T23:51:34.361Z,39.30
2018-09-03T23:53:38.502Z,40.17
2018-09-03T23:55:42.705Z,38.90
2018-09-03T23:57:47.934Z,39.83
2018-09-03T23:59:53.031Z,39.35
